createdAt,value
2022-10-28T00:01:08.111Z,81.10
2022-10-28T00:03:39.353Z,81.70
2022-10-28T00:06:08.919Z,82.40
2022-10-28T00:08:36.909Z,82.50
2022-10-28T00:11:07.119Z,82.90
2022-10-28T00:13:35.642Z,82.40
2022-10-28T00:16:10.586Z,83.70
2022-10-28T00:18:39.042Z,83.70
2022-10-28T00:21:08.994Z,83.10
2022-10-28T00:23:37.191Z,83.30
2022-10-28T00:26:07.445Z,82.60
2022-10-28T00:28:35.406Z,80.60
2022-10-28T00:31:09.977Z,81.20
2022-10-28T00:33:38.133Z,81.50
2022-10-28T00:36:13.893Z,83.50
2022-10-28T00:38:43.148Z,83.60
2022-10-28T00:41:12.660Z,82.20
2022-10-28T00:43:43.333Z,80.00
2022-10-28T00:46:27.896Z,79.20
2022-10-28T00:48:59.585Z,81.40
2022-10-28T00:51:30.622Z,81.00
2022-10-28T00:53:59.307Z,81.20
2022-10-28T00:56:30.635Z,81.00
2022-10-28T00:59:02.166Z,82.90
2022-10-28T01:01:31.743Z,83.20
2022-10-28T01:04:01.620Z,83.20
2022-10-28T01:06:30.348Z,84.30
2022-10-28T01:09:00.080Z,85.10
2022-10-28T01:11:52.164Z,85.10
2022-10-28T01:14:28.221Z,84.40
2022-10-28T01:17:10.082Z,82.40
2022-10-28T01:20:20.214Z,81.40
2022-10-28T01:22:55.235Z,82.10
2022-10-28T01:25:42.974Z,81.20
2022-10-28T01:28:26.649Z,81.00
2022-10-28T01:31:16.721Z,79.70
2022-10-28T01:33:51.038Z,80.50
2022-10-28T01:36:28.461Z,81.30
2022-10-28T01:39:03.948Z,82.00
2022-10-28T01:41:35.418Z,82.00
2022-10-28T01:44:08.620Z,82.80
2022-10-28T01:46:42.369Z,83.50
2022-10-28T01:49:14.667Z,84.80
2022-10-28T01:51:46.279Z,84.90
2022-10-28T01:54:19.891Z,84.50
2022-10-28T01:56:49.286Z,81.20
2022-10-28T01:59:21.929Z,80.50
2022-10-28T02:01:51.279Z,81.00
2022-10-28T02:04:19.345Z,81.90
2022-10-28T02:06:50.482Z,82.10
2022-10-28T02:09:33.868Z,81.80
2022-10-28T02:12:20.989Z,83.60
2022-10-28T02:15:14.255Z,83.70
2022-10-28T02:17:55.026Z,82.60
2022-10-28T02:20:34.337Z,81.80
2022-10-28T02:23:14.696Z,81.00
2022-10-28T02:25:47.290Z,81.60
2022-10-28T02:28:20.540Z,79.40
2022-10-28T02:30:54.205Z,79.30
2022-10-28T02:33:27.868Z,79.30
2022-10-28T02:36:00.012Z,80.00
2022-10-28T02:38:32.535Z,80.50
2022-10-28T02:41:03.501Z,81.60
2022-10-28T02:43:34.581Z,82.10
2022-10-28T02:46:04.980Z,82.80
2022-10-28T02:48:37.707Z,80.50
2022-10-28T02:51:11.263Z,80.80
2022-10-28T02:53:46.301Z,80.60
2022-10-28T02:56:16.787Z,81.30
2022-10-28T02:58:46.281Z,80.50
2022-10-28T03:01:14.265Z,80.80
2022-10-28T03:03:43.711Z,80.80
2022-10-28T03:06:11.646Z,80.90
2022-10-28T03:08:39.556Z,81.70
2022-10-28T03:11:07.439Z,82.00
2022-10-28T03:13:35.398Z,81.80
2022-10-28T03:16:03.368Z,82.10
2022-10-28T03:18:31.304Z,82.60
2022-10-28T03:21:00.566Z,81.40
2022-10-28T03:23:28.484Z,81.50
2022-10-28T03:25:56.405Z,82.00
2022-10-28T03:28:24.317Z,82.60
2022-10-28T03:30:52.353Z,82.60
2022-10-28T03:33:20.311Z,82.00
2022-10-28T03:35:48.185Z,81.80
2022-10-28T03:38:17.406Z,80.70
2022-10-28T03:40:45.334Z,81.10
2022-10-28T03:43:13.314Z,81.00
2022-10-28T03:45:41.261Z,81.40
2022-10-28T03:48:09.216Z,83.10
2022-10-28T03:50:37.339Z,82.70
2022-10-28T03:53:05.234Z,82.70
2022-10-28T03:55:34.489Z,82.30
2022-10-28T03:58:02.990Z,84.10
2022-10-28T04:00:31.185Z,84.10
2022-10-28T04:02:59.118Z,85.40
2022-10-28T04:05:27.051Z,85.90
2022-10-28T04:07:54.995Z,86.00
2022-10-28T04:10:22.867Z,83.50
2022-10-28T04:12:52.360Z,82.70
2022-10-28T04:15:20.646Z,82.40
2022-10-28T04:17:48.517Z,81.80
2022-10-28T04:20:16.696Z,82.40
2022-10-28T04:22:44.612Z,83.20
2022-10-28T04:25:12.808Z,83.90
2022-10-28T04:27:40.765Z,84.40
2022-10-28T04:30:12.385Z,86.00
2022-10-28T04:32:40.324Z,86.60
2022-10-28T04:35:09.152Z,86.10
2022-10-28T04:37:37.115Z,85.60
2022-10-28T04:40:05.759Z,84.90
2022-10-28T04:42:33.758Z,83.60
2022-10-28T04:45:01.684Z,84.50
2022-10-28T04:47:30.969Z,86.10
2022-10-28T04:49:58.815Z,85.80
2022-10-28T04:52:26.778Z,86.30
2022-10-28T04:54:54.643Z,85.80
2022-10-28T04:57:22.510Z,85.90
2022-10-28T04:59:50.459Z,87.60
2022-10-28T05:02:18.487Z,88.40
2022-10-28T05:04:47.819Z,88.60
2022-10-28T05:07:17.631Z,88.70
2022-10-28T05:09:47.876Z,88.70
2022-10-28T05:12:15.754Z,88.80
2022-10-28T05:14:43.634Z,88.40
2022-10-28T05:17:12.546Z,88.60
2022-10-28T05:19:40.451Z,88.20
2022-10-28T05:22:09.734Z,88.80
2022-10-28T05:24:37.594Z,88.90
2022-10-28T05:27:05.601Z,88.90
2022-10-28T05:29:33.566Z,89.40
2022-10-28T05:32:01.715Z,89.00
2022-10-28T05:34:29.667Z,89.70
2022-10-28T05:36:57.529Z,89.90
2022-10-28T05:39:26.802Z,89.90
2022-10-28T05:41:54.659Z,90.10
2022-10-28T05:44:22.613Z,90.10
2022-10-28T05:46:50.498Z,89.50
2022-10-28T05:49:20.353Z,89.40
2022-10-28T05:51:48.509Z,90.00
2022-10-28T05:54:16.417Z,90.50
2022-10-28T05:56:45.743Z,90.60
2022-10-28T05:59:13.605Z,90.20
2022-10-28T06:01:41.572Z,90.20
2022-10-28T06:04:09.584Z,90.40
2022-10-28T06:06:37.582Z,90.40
2022-10-28T06:09:05.871Z,90.80
2022-10-28T06:11:32.297Z,91.00
2022-10-28T06:14:01.911Z,91.20
2022-10-28T06:16:29.866Z,91.50
2022-10-28T06:18:57.784Z,91.60
2022-10-28T06:21:25.702Z,91.70
2022-10-28T06:23:53.599Z,91.70
2022-10-28T06:26:21.548Z,91.70
2022-10-28T06:28:49.432Z,91.70
2022-10-28T06:31:18.694Z,91.70
2022-10-28T06:33:46.930Z,91.70
2022-10-28T06:36:14.842Z,91.60
2022-10-28T06:38:42.739Z,91.60
2022-10-28T06:41:10.647Z,91.60
2022-10-28T06:43:38.652Z,91.60
2022-10-28T06:46:06.588Z,91.60
2022-10-28T06:48:37.320Z,91.50
2022-10-28T06:51:05.569Z,91.50
2022-10-28T06:53:33.539Z,91.50
2022-10-28T06:56:01.508Z,91.40
2022-10-28T06:58:29.561Z,91.40
2022-10-28T07:00:57.508Z,91.30
2022-10-28T07:03:25.428Z,91.30
2022-10-28T07:05:56.522Z,91.30
2022-10-28T07:08:24.533Z,91.10
2022-10-28T07:10:56.566Z,91.20
2022-10-28T07:13:24.488Z,91.00
2022-10-28T07:15:53.536Z,91.00
2022-10-28T07:18:21.781Z,91.10
2022-10-28T07:20:50.397Z,91.20
2022-10-28T07:23:20.118Z,91.40
2022-10-28T07:28:27.811Z,91.60
2022-10-28T07:30:56.100Z,91.50
2022-10-28T07:33:24.173Z,90.70
2022-10-28T07:35:52.083Z,90.50
2022-10-28T07:38:21.400Z,88.60
2022-10-28T07:40:49.414Z,86.70
2022-10-28T07:43:17.276Z,85.90
2022-10-28T07:45:45.312Z,84.90
2022-10-28T07:48:13.261Z,85.30
2022-10-28T07:50:41.705Z,84.20
2022-10-28T07:53:09.699Z,82.90
2022-10-28T07:55:39.035Z,82.10
2022-10-28T07:58:07.184Z,82.40
2022-10-28T08:00:35.208Z,81.70
2022-10-28T08:03:03.669Z,80.50
2022-10-28T08:05:31.632Z,77.60
2022-10-28T08:07:59.586Z,75.10
2022-10-28T08:10:28.232Z,73.30
2022-10-28T08:12:59.500Z,70.60
2022-10-28T08:15:28.777Z,68.50
2022-10-28T08:17:57.586Z,68.80
2022-10-28T08:20:25.778Z,68.50
2022-10-28T08:22:53.839Z,66.50
2022-10-28T08:25:21.937Z,66.90
2022-10-28T08:27:49.796Z,65.90
2022-10-28T08:30:19.249Z,65.40
2022-10-28T08:32:47.183Z,62.40
2022-10-28T08:35:15.189Z,63.90
2022-10-28T08:37:46.083Z,62.20
2022-10-28T08:40:14.696Z,63.20
2022-10-28T08:42:48.433Z,63.00
2022-10-28T08:45:26.501Z,62.90
2022-10-28T08:48:08.888Z,63.20
2022-10-28T08:50:46.319Z,65.70
2022-10-28T08:53:17.638Z,67.10
2022-10-28T08:55:48.651Z,67.90
2022-10-28T08:58:21.851Z,68.70
2022-10-28T09:00:54.828Z,68.70
2022-10-28T09:03:24.201Z,69.30
2022-10-28T09:05:59.052Z,70.50
2022-10-28T09:08:29.334Z,70.80
2022-10-28T09:11:13.036Z,71.40
2022-10-28T09:13:54.393Z,71.70
2022-10-28T09:16:33.884Z,71.80
2022-10-28T09:19:05.952Z,72.50
2022-10-28T09:21:42.188Z,74.10
2022-10-28T09:24:18.570Z,75.30
2022-10-28T09:26:54.399Z,76.80
2022-10-28T09:29:37.203Z,75.00
2022-10-28T09:32:19.400Z,72.30
2022-10-28T09:34:53.091Z,69.40
2022-10-28T09:37:25.224Z,68.20
2022-10-28T09:39:56.949Z,66.60
2022-10-28T09:42:29.258Z,67.10
2022-10-28T09:45:00.922Z,65.30
2022-10-28T09:47:36.345Z,63.50
2022-10-28T09:50:08.376Z,62.00
2022-10-28T09:52:44.162Z,61.50
2022-10-28T09:55:21.905Z,60.20
2022-10-28T09:57:50.161Z,60.00
2022-10-28T10:00:19.147Z,59.60
2022-10-28T10:02:48.627Z,58.90
2022-10-28T10:05:19.359Z,58.80
2022-10-28T10:07:50.416Z,57.80
2022-10-28T10:10:24.469Z,56.70
2022-10-28T10:12:54.859Z,55.80
2022-10-28T10:15:32.321Z,56.50
2022-10-28T10:18:03.336Z,56.60
2022-10-28T10:20:48.259Z,56.20
2022-10-28T10:23:25.099Z,56.30
2022-10-28T10:25:59.216Z,56.60
2022-10-28T10:28:29.580Z,57.00
2022-10-28T10:30:59.719Z,54.10
2022-10-28T10:33:32.644Z,54.40
2022-10-28T10:36:04.685Z,54.30
2022-10-28T10:38:33.497Z,53.20
2022-10-28T10:41:01.401Z,54.70
2022-10-28T10:43:32.950Z,55.40
2022-10-28T10:46:03.884Z,53.70
2022-10-28T10:48:36.253Z,55.90
2022-10-28T10:51:09.330Z,53.90
2022-10-28T10:53:39.175Z,53.20
2022-10-28T10:56:10.748Z,54.00
2022-10-28T10:58:41.382Z,53.10
2022-10-28T11:01:17.869Z,55.20
2022-10-28T11:03:54.040Z,55.80
2022-10-28T11:06:25.009Z,55.80
2022-10-28T11:08:58.857Z,57.00
2022-10-28T11:11:34.557Z,57.90
2022-10-28T11:14:08.480Z,57.50
2022-10-28T11:16:49.279Z,56.60
2022-10-28T11:19:22.915Z,56.30
2022-10-28T11:21:59.432Z,55.80
2022-10-28T11:24:51.815Z,55.10
2022-10-28T11:27:31.760Z,53.30
2022-10-28T11:30:01.371Z,54.40
2022-10-28T11:33:01.832Z,53.00
2022-10-28T11:35:51.038Z,51.60
2022-10-28T11:38:31.622Z,53.00
2022-10-28T11:41:13.567Z,52.70
2022-10-28T11:43:54.813Z,52.90
2022-10-28T11:46:43.388Z,52.90
2022-10-28T11:49:39.146Z,53.00
2022-10-28T11:52:23.806Z,53.80
2022-10-28T11:55:04.537Z,53.30
2022-10-28T11:57:42.774Z,53.10
2022-10-28T12:00:33.292Z,53.30
2022-10-28T12:03:34.762Z,52.50
2022-10-28T12:06:10.695Z,53.80
2022-10-28T12:08:56.384Z,54.20
2022-10-28T12:11:37.813Z,54.50
2022-10-28T12:14:14.539Z,53.40
2022-10-28T12:16:51.928Z,53.00
2022-10-28T12:19:23.547Z,53.60
2022-10-28T12:21:59.977Z,53.00
2022-10-28T12:24:31.637Z,52.20
2022-10-28T12:27:02.708Z,52.90
2022-10-28T12:29:33.531Z,52.70
2022-10-28T12:32:06.724Z,53.90
2022-10-28T12:34:39.394Z,53.20
2022-10-28T12:37:09.906Z,55.30
2022-10-28T12:39:45.473Z,55.40
2022-10-28T12:42:17.466Z,55.00
2022-10-28T12:44:47.791Z,55.60
2022-10-28T12:47:25.538Z,55.40
2022-10-28T12:50:03.199Z,55.40
2022-10-28T12:52:43.529Z,55.60
2022-10-28T12:55:25.566Z,55.60
2022-10-28T12:58:00.497Z,56.10
2022-10-28T13:00:32.276Z,56.40
2022-10-28T13:03:04.122Z,57.00
2022-10-28T13:05:40.735Z,57.30
2022-10-28T13:08:51.291Z,56.90
2022-10-28T13:11:51.443Z,57.70
2022-10-28T13:14:47.955Z,58.90
2022-10-28T13:17:37.201Z,58.10
2022-10-28T13:20:15.647Z,59.00
2022-10-28T13:23:15.402Z,58.40
2022-10-28T13:25:57.075Z,58.80
2022-10-28T13:28:31.436Z,58.80
2022-10-28T13:31:02.025Z,59.30
2022-10-28T13:33:31.175Z,59.60
2022-10-28T13:36:11.784Z,59.80
2022-10-28T13:38:41.130Z,60.00
2022-10-28T13:41:30.838Z,61.50
2022-10-28T13:44:22.892Z,62.00
2022-10-28T13:47:25.840Z,62.90
2022-10-28T13:50:23.912Z,63.80
2022-10-28T13:53:43.330Z,64.80
2022-10-28T13:56:26.328Z,65.00
2022-10-28T13:58:56.777Z,65.00
2022-10-28T14:02:01.407Z,67.30
2022-10-28T14:04:39.445Z,67.50
2022-10-28T14:07:27.887Z,67.60
2022-10-28T14:09:59.469Z,67.40
2022-10-28T14:12:30.427Z,67.50
2022-10-28T14:15:05.612Z,67.00
2022-10-28T14:17:40.018Z,66.20
2022-10-28T14:20:22.799Z,64.90
2022-10-28T14:22:52.888Z,64.30
2022-10-28T14:26:00.110Z,64.00
2022-10-28T14:28:54.499Z,66.00
2022-10-28T14:31:42.835Z,66.30
2022-10-28T14:34:37.676Z,67.50
2022-10-28T14:37:38.572Z,68.00
2022-10-28T14:40:25.763Z,68.80
2022-10-28T14:43:08.276Z,69.10
2022-10-28T14:45:45.816Z,69.50
2022-10-28T14:48:50.991Z,70.30
2022-10-28T14:51:24.031Z,71.40
2022-10-28T14:53:57.338Z,71.10
2022-10-28T14:56:27.085Z,70.60
2022-10-28T14:58:58.410Z,71.20
2022-10-28T15:01:28.603Z,72.10
2022-10-28T15:04:00.275Z,72.80
2022-10-28T15:06:41.621Z,73.20
2022-10-28T15:09:21.345Z,73.30
2022-10-28T15:11:52.610Z,73.50
2022-10-28T15:14:33.000Z,73.20
2022-10-28T15:17:04.511Z,73.50
2022-10-28T15:19:35.809Z,73.80
2022-10-28T15:22:08.115Z,74.90
2022-10-28T15:24:36.036Z,75.50
2022-10-28T15:27:04.012Z,76.10
2022-10-28T15:29:32.777Z,76.20
2022-10-28T15:32:17.149Z,76.90
2022-10-28T15:34:45.175Z,77.30
2022-10-28T15:37:18.900Z,77.30
2022-10-28T15:39:47.197Z,77.90
2022-10-28T15:42:32.374Z,78.90
2022-10-28T15:45:00.629Z,79.10
2022-10-28T15:47:33.890Z,79.00
2022-10-28T15:50:06.248Z,79.30
2022-10-28T15:52:37.914Z,80.40
2022-10-28T15:58:34.106Z,81.40
2022-10-28T16:01:02.083Z,82.10
2022-10-28T16:03:43.302Z,80.80
2022-10-28T16:06:24.728Z,80.70
2022-10-28T16:09:18.710Z,80.70
2022-10-28T16:11:49.117Z,82.20
2022-10-28T16:14:37.674Z,82.40
2022-10-28T16:17:17.648Z,82.70
2022-10-28T16:19:51.370Z,83.80
2022-10-28T16:22:20.067Z,84.40
2022-10-28T16:24:50.591Z,84.40
2022-10-28T16:27:20.621Z,83.90
2022-10-28T16:29:48.883Z,85.20
2022-10-28T16:32:18.902Z,85.60
2022-10-28T16:34:47.106Z,85.70
2022-10-28T16:37:26.991Z,86.40
2022-10-28T16:39:57.707Z,86.50
2022-10-28T16:42:25.945Z,86.20
2022-10-28T16:44:54.102Z,82.10
2022-10-28T16:47:25.553Z,80.90
2022-10-28T16:49:57.203Z,83.80
2022-10-28T16:52:27.256Z,83.80
2022-10-28T16:54:57.636Z,83.80
2022-10-28T16:57:26.550Z,85.40
2022-10-28T16:59:54.846Z,86.40
2022-10-28T17:02:26.987Z,86.60
2022-10-28T17:04:55.277Z,86.10
2022-10-28T17:07:23.206Z,87.00
2022-10-28T17:09:51.907Z,87.90
2022-10-28T17:12:23.296Z,88.00
2022-10-28T17:14:51.707Z,87.30
2022-10-28T17:17:20.090Z,86.70
2022-10-28T17:19:47.950Z,86.70
2022-10-28T17:22:15.858Z,87.00
2022-10-28T17:24:43.769Z,88.10
2022-10-28T17:27:12.884Z,88.20
2022-10-28T17:29:42.227Z,87.80
2022-10-28T17:32:10.214Z,87.30
2022-10-28T17:34:38.174Z,88.00
2022-10-28T17:37:06.100Z,88.10
2022-10-28T17:39:34.078Z,87.50
2022-10-28T17:42:01.966Z,83.80
2022-10-28T17:44:29.848Z,81.80
2022-10-28T17:46:59.038Z,81.10
2022-10-28T17:49:26.928Z,81.60
2022-10-28T17:51:54.835Z,82.60
2022-10-28T17:56:51.500Z,84.40
2022-10-28T17:59:19.356Z,85.40
2022-10-28T18:01:47.364Z,85.40
2022-10-28T18:04:16.737Z,86.90
2022-10-28T18:06:44.641Z,87.30
2022-10-28T18:09:13.236Z,87.30
2022-10-28T18:11:41.128Z,87.30
2022-10-28T18:14:09.175Z,87.40
2022-10-28T18:16:38.118Z,87.40
2022-10-28T18:19:07.334Z,87.40
2022-10-28T18:21:36.819Z,87.50
2022-10-28T18:24:05.460Z,87.40
2022-10-28T18:26:35.139Z,88.30
2022-10-28T18:29:04.067Z,87.20
2022-10-28T18:31:33.665Z,87.60
2022-10-28T18:34:02.069Z,87.40
2022-10-28T18:36:34.064Z,87.30
2022-10-28T18:39:04.320Z,87.30
2022-10-28T18:41:32.946Z,87.50
2022-10-28T18:44:03.842Z,84.90
2022-10-28T18:46:34.917Z,84.50
2022-10-28T18:49:04.304Z,81.20
2022-10-28T18:51:32.712Z,80.60
2022-10-28T18:54:00.640Z,82.50
2022-10-28T18:56:30.532Z,81.80
2022-10-28T18:58:59.061Z,81.90
2022-10-28T19:01:29.154Z,83.00
2022-10-28T19:03:59.207Z,81.70
2022-10-28T19:06:32.045Z,82.80
2022-10-28T19:09:01.695Z,83.20
2022-10-28T19:11:32.547Z,84.10
2022-10-28T19:14:02.008Z,85.50
2022-10-28T19:16:31.919Z,85.60
2022-10-28T19:19:01.176Z,84.50
2022-10-28T19:21:29.660Z,85.10
2022-10-28T19:23:57.939Z,85.00
2022-10-28T19:26:26.088Z,81.70
2022-10-28T19:28:55.596Z,79.90
2022-10-28T19:31:27.151Z,84.50
2022-10-28T19:33:55.614Z,86.30
2022-10-28T19:36:25.008Z,86.30
2022-10-28T19:38:54.368Z,83.70
2022-10-28T19:41:23.813Z,80.00
2022-10-28T19:43:58.158Z,79.40
2022-10-28T19:46:28.025Z,80.40
2022-10-28T19:48:57.699Z,81.10
2022-10-28T19:51:27.695Z,82.50
2022-10-28T19:53:57.473Z,83.80
2022-10-28T19:56:26.129Z,82.70
2022-10-28T19:58:57.071Z,84.50
2022-10-28T20:01:28.091Z,84.70
2022-10-28T20:03:56.823Z,85.40
2022-10-28T20:06:26.366Z,85.70
2022-10-28T20:08:54.226Z,85.70
2022-10-28T20:11:26.290Z,86.00
2022-10-28T20:13:57.811Z,85.90
2022-10-28T20:16:26.356Z,86.10
2022-10-28T20:18:55.274Z,86.10
2022-10-28T20:21:25.218Z,86.60
2022-10-28T20:23:55.246Z,86.20
2022-10-28T20:26:25.471Z,83.70
2022-10-28T20:28:54.779Z,81.70
2022-10-28T20:31:24.176Z,80.80
2022-10-28T20:33:53.582Z,78.40
2022-10-28T20:36:26.243Z,78.00
2022-10-28T20:38:55.440Z,78.00
2022-10-28T20:41:24.304Z,78.20
2022-10-28T20:43:54.170Z,78.60
2022-10-28T20:46:24.800Z,76.70
2022-10-28T20:48:54.175Z,77.90
2022-10-28T20:51:23.038Z,78.00
2022-10-28T20:53:51.043Z,79.10
2022-10-28T20:56:20.699Z,80.00
2022-10-28T20:58:48.847Z,80.50
2022-10-28T21:01:19.841Z,81.60
2022-10-28T21:03:50.431Z,82.30
2022-10-28T21:06:19.048Z,83.20
2022-10-28T21:08:46.985Z,83.70
2022-10-28T21:11:16.497Z,83.70
2022-10-28T21:13:45.465Z,83.40
2022-10-28T21:16:14.204Z,82.80
2022-10-28T21:18:42.104Z,80.80
2022-10-28T21:21:12.014Z,79.00
2022-10-28T21:23:40.192Z,77.90
2022-10-28T21:26:09.255Z,79.20
2022-10-28T21:28:37.533Z,77.80
2022-10-28T21:31:07.141Z,79.10
2022-10-28T21:33:36.479Z,82.30
2022-10-28T21:36:07.095Z,84.10
2022-10-28T21:38:36.515Z,84.30
2022-10-28T21:41:06.543Z,84.40
2022-10-28T21:43:36.462Z,83.20
2022-10-28T21:46:04.785Z,79.60
2022-10-28T21:48:34.289Z,79.40
2022-10-28T21:51:07.223Z,79.60
2022-10-28T21:53:39.960Z,79.40
2022-10-28T21:56:15.416Z,78.20
2022-10-28T21:58:44.918Z,76.90
2022-10-28T22:01:15.122Z,77.60
2022-10-28T22:03:43.355Z,77.10
2022-10-28T22:06:11.473Z,76.80
2022-10-28T22:08:41.031Z,78.20
2022-10-28T22:11:12.699Z,80.00
2022-10-28T22:13:40.532Z,81.20
2022-10-28T22:16:11.283Z,81.40
2022-10-28T22:18:39.524Z,81.00
2022-10-28T22:21:08.700Z,82.40
2022-10-28T22:23:36.758Z,83.20
2022-10-28T22:26:07.824Z,82.40
2022-10-28T22:28:36.012Z,81.20
2022-10-28T22:31:05.960Z,80.30
2022-10-28T22:33:34.048Z,82.30
2022-10-28T22:36:03.922Z,81.80
2022-10-28T22:38:32.076Z,79.40
2022-10-28T22:41:05.478Z,77.70
2022-10-28T22:43:33.637Z,76.40
2022-10-28T22:46:01.826Z,76.30
2022-10-28T22:48:29.910Z,76.00
2022-10-28T22:50:58.350Z,77.20
2022-10-28T22:53:26.554Z,77.90
2022-10-28T22:55:54.870Z,77.30
2022-10-28T22:58:25.328Z,77.80
2022-10-28T23:00:53.314Z,78.20
2022-10-28T23:03:21.328Z,80.50
2022-10-28T23:05:49.174Z,82.20
2022-10-28T23:08:17.260Z,82.10
2022-10-28T23:10:45.171Z,78.30
2022-10-28T23:13:13.587Z,76.30
2022-10-28T23:15:42.841Z,75.40
2022-10-28T23:18:10.662Z,76.60
2022-10-28T23:20:38.511Z,77.50
2022-10-28T23:23:06.384Z,78.10
2022-10-28T23:25:34.271Z,77.80
2022-10-28T23:28:04.956Z,77.80
2022-10-28T23:30:33.163Z,76.30
2022-10-28T23:33:02.517Z,77.00
2022-10-28T23:35:30.377Z,77.60
2022-10-28T23:38:00.110Z,78.90
2022-10-28T23:40:28.057Z,80.20
2022-10-28T23:42:56.298Z,79.30
2022-10-28T23:45:24.412Z,77.80
2022-10-28T23:47:52.312Z,77.40
2022-10-28T23:50:21.525Z,77.10
2022-10-28T23:52:53.668Z,76.10
2022-10-28T23:55:21.789Z,77.10
2022-10-28T23:57:49.645Z,78.40
